createdAt,value
2023-04-05T00:00:03.987Z,3.14
2023-04-05T00:01:04.096Z,3.16
2023-04-05T00:02:11.511Z,3.05
2023-04-05T00:03:04.019Z,3.10
2023-04-05T00:04:05.045Z,3.13
2023-04-05T00:05:03.928Z,3.01
2023-04-05T00:06:04.019Z,3.11
2023-04-05T00:07:03.904Z,3.03
2023-04-05T00:08:03.902Z,3.10
2023-04-05T00:09:03.907Z,3.05
2023-04-05T00:10:03.896Z,3.13
2023-04-05T00:11:03.891Z,3.03
2023-04-05T00:12:03.853Z,3.08
2023-04-05T00:13:03.839Z,3.00
2023-04-05T00:14:03.843Z,3.04
2023-04-05T00:15:03.837Z,3.00
2023-04-05T00:16:03.868Z,2.97
2023-04-05T00:17:03.796Z,3.00
2023-04-05T00:18:03.967Z,2.93
2023-04-05T00:19:03.788Z,3.00
2023-04-05T00:20:03.788Z,3.01
2023-04-05T00:21:03.752Z,2.93
2023-04-05T00:22:03.742Z,2.95
2023-04-05T00:23:03.744Z,2.95
2023-04-05T00:24:03.721Z,2.90
2023-04-05T00:25:03.719Z,2.86
2023-04-05T00:26:03.710Z,2.87
2023-04-05T00:27:03.705Z,2.87
2023-04-05T00:28:03.680Z,2.85
2023-04-05T00:29:03.661Z,2.89
2023-04-05T00:30:03.721Z,2.85
2023-04-05T00:31:03.670Z,2.89
2023-04-05T00:32:03.690Z,2.86
2023-04-05T00:33:03.750Z,2.87
2023-04-05T00:34:03.620Z,2.83
2023-04-05T00:35:03.599Z,2.79
2023-04-05T00:36:03.659Z,2.79
2023-04-05T00:37:03.596Z,2.75
2023-04-05T00:38:03.561Z,2.77
2023-04-05T00:39:03.558Z,2.83
2023-04-05T00:40:03.596Z,2.82
2023-04-05T00:41:03.539Z,2.77
2023-04-05T00:42:03.539Z,2.77
2023-04-05T00:43:03.531Z,2.80
2023-04-05T00:44:03.502Z,2.77
2023-04-05T00:45:03.492Z,2.86
2023-04-05T00:46:03.524Z,2.75
2023-04-05T00:47:03.487Z,2.71
2023-04-05T00:48:03.476Z,2.77
2023-04-05T00:49:03.488Z,2.67
2023-04-05T00:50:03.439Z,2.72
2023-04-05T00:51:03.421Z,2.75
2023-04-05T00:52:03.446Z,2.72
2023-04-05T00:53:03.409Z,2.69
2023-04-05T00:54:03.393Z,2.71
2023-04-05T00:55:03.406Z,2.69
2023-04-05T00:56:03.377Z,2.71
2023-04-05T00:57:03.383Z,2.68
2023-04-05T00:58:03.345Z,2.68
2023-04-05T00:59:03.964Z,2.67
2023-04-05T01:00:03.343Z,2.62
2023-04-05T01:01:03.348Z,2.60
2023-04-05T01:02:03.301Z,2.62
2023-04-05T01:03:03.386Z,2.71
2023-04-05T01:04:03.655Z,2.56
2023-04-05T01:05:03.272Z,2.60
2023-04-05T01:06:03.275Z,2.54
2023-04-05T01:07:03.279Z,2.64
2023-04-05T01:08:03.232Z,2.60
2023-04-05T01:09:03.223Z,2.61
2023-04-05T01:10:03.218Z,2.64
2023-04-05T01:11:03.249Z,2.54
2023-04-05T01:12:03.204Z,2.57
2023-04-05T01:13:03.300Z,2.60
2023-04-05T01:14:03.175Z,2.54
2023-04-05T01:15:03.175Z,2.53
2023-04-05T01:16:03.312Z,2.54
2023-04-05T01:17:03.147Z,2.54
2023-04-05T01:18:03.163Z,2.53
2023-04-05T01:19:03.127Z,2.39
2023-04-05T01:20:03.109Z,2.42
2023-04-05T01:21:03.104Z,2.33
2023-04-05T01:22:03.090Z,2.42
2023-04-05T01:23:03.066Z,2.33
2023-04-05T01:24:03.081Z,2.35
2023-04-05T01:25:03.052Z,2.31
2023-04-05T01:26:03.062Z,2.33
2023-04-05T01:27:03.045Z,2.33
2023-04-05T01:28:03.016Z,2.38
2023-04-05T01:29:03.004Z,2.38
2023-04-05T01:30:02.990Z,2.38
2023-04-05T01:31:03.036Z,2.35
2023-04-05T01:32:02.994Z,2.35
2023-04-05T01:33:02.971Z,2.33
2023-04-05T01:34:02.960Z,2.35
2023-04-05T01:35:02.942Z,2.36
2023-04-05T01:36:03.019Z,2.38
2023-04-05T01:37:02.916Z,2.38
2023-04-05T01:38:02.904Z,2.35
2023-04-05T01:39:02.894Z,2.33
2023-04-05T01:40:02.901Z,2.39
2023-04-05T01:41:02.888Z,2.32
2023-04-05T01:42:02.874Z,2.33
2023-04-05T01:43:02.853Z,2.35
2023-04-05T01:44:02.859Z,2.35
2023-04-05T01:45:02.848Z,2.31
2023-04-05T01:46:02.886Z,2.32
2023-04-05T01:47:02.843Z,2.32
2023-04-05T01:48:02.821Z,2.29
2023-04-05T01:49:02.800Z,2.29
2023-04-05T01:50:02.771Z,2.36
2023-04-05T01:51:02.762Z,2.32
2023-04-05T01:52:02.768Z,2.33
2023-04-05T01:53:02.746Z,2.35
2023-04-05T01:54:02.750Z,2.39
2023-04-05T01:55:02.719Z,2.39
2023-04-05T01:56:02.759Z,2.38
2023-04-05T01:57:02.697Z,2.50
2023-04-05T01:58:02.691Z,2.51
2023-04-05T01:59:02.718Z,2.43
2023-04-05T02:00:02.683Z,2.53
2023-04-05T02:01:02.711Z,2.60
2023-04-05T02:02:02.644Z,2.56
2023-04-05T02:03:02.734Z,2.56
2023-04-05T02:04:03.085Z,2.62
2023-04-05T02:05:02.618Z,2.71
2023-04-05T02:06:02.609Z,2.68
2023-04-05T02:07:02.600Z,2.71
2023-04-05T02:08:02.739Z,2.75
2023-04-05T02:09:02.576Z,2.82
2023-04-05T02:10:02.558Z,2.80
2023-04-05T02:11:02.546Z,2.82
2023-04-05T02:12:02.549Z,2.83
2023-04-05T02:13:02.525Z,2.79
2023-04-05T02:14:02.528Z,2.80
2023-04-05T02:15:02.524Z,2.80
2023-04-05T02:16:02.565Z,2.80
2023-04-05T02:17:02.484Z,2.77
2023-04-05T02:18:03.027Z,2.83
2023-04-05T02:19:02.479Z,2.85
2023-04-05T02:20:02.496Z,2.85
2023-04-05T02:21:02.442Z,3.01
2023-04-05T02:22:02.431Z,3.03
2023-04-05T02:23:02.420Z,3.04
2023-04-05T02:24:02.445Z,3.07
2023-04-05T02:25:02.405Z,3.04
2023-04-05T02:26:02.387Z,3.10
2023-04-05T02:27:02.380Z,3.11
2023-04-05T02:28:02.362Z,3.22
2023-04-05T02:29:02.354Z,3.16
2023-04-05T02:30:02.363Z,3.21
2023-04-05T02:31:02.344Z,3.29
2023-04-05T02:32:02.447Z,3.25
2023-04-05T02:33:02.349Z,3.32
2023-04-05T02:34:02.318Z,3.44
2023-04-05T02:35:02.315Z,3.42
2023-04-05T02:36:02.273Z,3.44
2023-04-05T02:37:02.278Z,3.47
2023-04-05T02:38:02.271Z,3.48
2023-04-05T02:39:02.261Z,3.53
2023-04-05T02:40:02.254Z,3.53
2023-04-05T02:41:02.231Z,3.55
2023-04-05T02:42:02.949Z,3.55
2023-04-05T02:43:02.245Z,3.53
2023-04-05T02:44:02.199Z,3.59
2023-04-05T02:45:02.182Z,3.58
2023-04-05T02:46:02.246Z,3.63
2023-04-05T02:47:02.155Z,3.62
2023-04-05T02:48:02.180Z,3.62
2023-04-05T02:49:02.151Z,3.62
2023-04-05T02:50:02.140Z,3.70
2023-04-05T02:51:02.180Z,3.65
2023-04-05T02:52:02.096Z,3.70
2023-04-05T02:53:02.089Z,3.80
2023-04-05T02:54:02.079Z,3.66
2023-04-05T02:55:02.090Z,3.80
2023-04-05T02:56:02.052Z,3.81
2023-04-05T02:57:02.045Z,3.81
2023-04-05T02:58:02.035Z,3.94
2023-04-05T02:59:02.069Z,3.84
2023-04-05T03:00:02.023Z,3.92
2023-04-05T03:01:02.085Z,3.92
2023-04-05T03:02:01.989Z,4.02
2023-04-05T03:03:02.057Z,3.98
2023-04-05T03:04:02.072Z,4.01
2023-04-05T03:05:01.973Z,3.99
2023-04-05T03:06:01.947Z,4.02
2023-04-05T03:07:01.959Z,4.12
2023-04-05T03:08:01.993Z,4.16
2023-04-05T03:09:01.926Z,4.14
2023-04-05T03:10:01.900Z,4.13
2023-04-05T03:11:01.893Z,4.16
2023-04-05T03:12:01.889Z,4.12
2023-04-05T03:13:01.872Z,4.16
2023-04-05T03:14:01.886Z,4.23
2023-04-05T03:15:01.847Z,4.24
2023-04-05T03:16:01.890Z,4.22
2023-04-05T03:17:01.957Z,4.23
2023-04-05T03:18:01.891Z,4.23
2023-04-05T03:19:01.836Z,4.31
2023-04-05T03:20:01.792Z,4.19
2023-04-05T03:21:01.821Z,4.20
2023-04-05T03:22:01.785Z,4.26
2023-04-05T03:23:01.779Z,4.13
2023-04-05T03:24:02.179Z,4.17
2023-04-05T03:25:01.887Z,4.22
2023-04-05T03:26:01.827Z,4.20
2023-04-05T03:27:01.758Z,4.26
2023-04-05T03:28:01.735Z,4.19
2023-04-05T03:29:01.724Z,4.19
2023-04-05T03:30:01.727Z,4.17
2023-04-05T03:31:01.713Z,4.17
2023-04-05T03:32:01.662Z,4.16
2023-04-05T03:33:01.709Z,4.16
2023-04-05T03:34:01.640Z,4.26
2023-04-05T03:35:01.637Z,4.22
2023-04-05T03:36:01.675Z,4.22
2023-04-05T03:37:01.605Z,4.17
2023-04-05T03:38:01.616Z,4.23
2023-04-05T03:39:01.604Z,4.19
2023-04-05T03:40:01.573Z,4.22
2023-04-05T03:41:01.612Z,4.19
2023-04-05T03:42:01.550Z,4.22
2023-04-05T03:43:01.540Z,4.24
2023-04-05T03:44:01.533Z,4.17
2023-04-05T03:45:01.527Z,4.17
2023-04-05T03:46:01.527Z,4.19
2023-04-05T03:47:01.517Z,4.20
2023-04-05T03:48:01.590Z,4.19
2023-04-05T03:49:01.476Z,4.12
2023-04-05T03:50:01.531Z,4.17
2023-04-05T03:51:01.478Z,4.16
2023-04-05T03:52:01.440Z,4.20
2023-04-05T03:53:01.439Z,4.17
2023-04-05T03:54:01.422Z,4.23
2023-04-05T03:55:01.436Z,4.16
2023-04-05T03:56:01.414Z,4.19
2023-04-05T03:57:01.386Z,4.16
2023-04-05T03:58:01.371Z,4.24
2023-04-05T03:59:01.434Z,4.24
2023-04-05T04:00:01.368Z,4.19
2023-04-05T04:01:01.369Z,4.23
2023-04-05T04:02:01.347Z,4.19
2023-04-05T04:03:01.456Z,4.22
2023-04-05T04:04:01.310Z,4.26
2023-04-05T04:05:01.348Z,4.23
2023-04-05T04:06:01.303Z,4.22
2023-04-05T04:07:01.284Z,4.22
2023-04-05T04:08:01.265Z,4.23
2023-04-05T04:09:01.251Z,4.17
2023-04-05T04:10:01.254Z,4.28
2023-04-05T04:11:01.249Z,4.22
2023-04-05T04:12:01.220Z,4.22
2023-04-05T04:13:01.207Z,4.26
2023-04-05T04:14:01.198Z,4.30
2023-04-05T04:15:01.201Z,4.31
2023-04-05T04:16:01.233Z,4.23
2023-04-05T04:17:01.163Z,4.31
2023-04-05T04:18:01.203Z,4.24
2023-04-05T04:19:01.146Z,4.30
2023-04-05T04:20:01.163Z,4.28
2023-04-05T04:21:01.120Z,4.32
2023-04-05T04:22:01.120Z,4.38
2023-04-05T04:23:01.114Z,4.30
2023-04-05T04:24:01.118Z,4.31
2023-04-05T04:25:01.075Z,4.28
2023-04-05T04:26:01.058Z,4.38
2023-04-05T04:27:01.089Z,4.40
2023-04-05T04:28:01.060Z,4.32
2023-04-05T04:29:01.036Z,4.38
2023-04-05T04:30:01.041Z,4.30
2023-04-05T04:31:01.012Z,4.28
2023-04-05T04:32:01.114Z,4.35
2023-04-05T04:33:01.019Z,4.32
2023-04-05T04:34:00.986Z,4.31
2023-04-05T04:35:00.980Z,4.24
2023-04-05T04:36:00.998Z,4.45
2023-04-05T04:37:01.111Z,4.28
2023-04-05T04:38:00.971Z,4.24
2023-04-05T04:39:00.920Z,4.42
2023-04-05T04:40:00.911Z,4.32
2023-04-05T04:41:00.904Z,4.45
2023-04-05T04:42:01.458Z,4.42
2023-04-05T04:43:00.913Z,4.40
2023-04-05T04:44:00.867Z,4.41
2023-04-05T04:45:00.897Z,4.40
2023-04-05T04:46:00.922Z,4.42
2023-04-05T04:47:00.843Z,4.38
2023-04-05T04:48:00.830Z,4.41
2023-04-05T04:49:00.825Z,4.42
2023-04-05T04:50:00.811Z,4.44
2023-04-05T04:51:00.811Z,4.40
2023-04-05T04:52:00.779Z,4.38
2023-04-05T04:53:00.766Z,4.35
2023-04-05T04:54:00.796Z,4.40
2023-04-05T04:55:00.746Z,4.42
2023-04-05T04:56:00.780Z,4.42
2023-04-05T04:57:00.720Z,4.42
2023-04-05T04:58:00.726Z,4.38
2023-04-05T04:59:00.731Z,4.38
2023-04-05T05:00:00.798Z,4.35
2023-04-05T05:01:00.697Z,4.41
2023-04-05T05:02:00.686Z,4.31
2023-04-05T05:03:00.679Z,4.45
2023-04-05T05:04:00.706Z,4.48
2023-04-05T05:05:00.643Z,4.48
2023-04-05T05:06:00.636Z,4.45
2023-04-05T05:07:00.632Z,4.42
2023-04-05T05:08:00.607Z,4.44
2023-04-05T05:09:00.789Z,4.44
2023-04-05T05:10:00.586Z,4.44
2023-04-05T05:11:00.589Z,4.41
2023-04-05T05:12:00.580Z,4.53
2023-04-05T05:13:00.560Z,4.45
2023-04-05T05:14:00.549Z,4.49
2023-04-05T05:15:00.549Z,4.48
2023-04-05T05:16:00.528Z,4.40
2023-04-05T05:17:00.620Z,4.52
2023-04-05T05:18:00.509Z,4.50
2023-04-05T05:19:00.503Z,4.45
2023-04-05T05:20:00.497Z,4.41
2023-04-05T05:21:00.466Z,4.45
2023-04-05T05:22:00.457Z,4.48
2023-04-05T05:23:00.452Z,4.59
2023-04-05T05:24:00.435Z,4.58
2023-04-05T05:25:00.421Z,4.55
2023-04-05T05:26:00.421Z,4.56
2023-04-05T05:27:00.400Z,4.63
2023-04-05T05:28:00.407Z,4.63
2023-04-05T05:29:00.379Z,4.70
2023-04-05T05:30:00.367Z,4.71
2023-04-05T05:31:00.536Z,4.67
2023-04-05T05:32:00.365Z,4.66
2023-04-05T05:33:00.950Z,4.66
2023-04-05T05:34:00.330Z,4.68
2023-04-05T05:35:00.568Z,4.71
2023-04-05T05:36:00.329Z,4.77
2023-04-05T05:37:00.297Z,4.77
2023-04-05T05:38:00.298Z,4.80
2023-04-05T05:39:00.272Z,4.68
2023-04-05T05:40:00.272Z,4.82
2023-04-05T05:41:00.244Z,4.80
2023-04-05T05:42:00.246Z,4.87
2023-04-05T05:43:00.248Z,4.96
2023-04-05T05:44:00.230Z,4.93
2023-04-05T05:45:00.213Z,4.84
2023-04-05T05:46:00.218Z,4.90
2023-04-05T05:47:00.215Z,4.96
2023-04-05T05:48:00.263Z,4.90
2023-04-05T05:49:00.156Z,4.87
2023-04-05T05:50:00.159Z,4.90
2023-04-05T05:51:00.134Z,5.07
2023-04-05T05:52:00.179Z,5.07
2023-04-05T05:53:01.601Z,5.11
2023-04-05T05:54:00.126Z,5.04
2023-04-05T05:55:00.128Z,5.10
2023-04-05T05:56:00.108Z,5.14
2023-04-05T05:57:00.113Z,5.26
2023-04-05T05:58:00.123Z,5.38
2023-04-05T05:59:01.002Z,5.41
2023-04-05T06:00:00.052Z,5.43
2023-04-05T06:01:00.038Z,5.47
2023-04-05T06:02:09.503Z,5.47
2023-04-05T06:03:00.167Z,5.48
2023-04-05T06:04:00.154Z,5.51
2023-04-05T06:05:00.150Z,5.61
2023-04-05T06:06:00.046Z,5.71
2023-04-05T06:06:59.980Z,5.84
2023-04-05T06:07:59.984Z,5.99
2023-04-05T06:08:59.985Z,6.02
2023-04-05T06:09:59.948Z,6.07
2023-04-05T06:11:00.054Z,6.16
2023-04-05T06:11:59.957Z,6.27
2023-04-05T06:12:59.973Z,6.38
2023-04-05T06:14:00.106Z,6.46
2023-04-05T06:14:59.892Z,6.38
2023-04-05T06:15:59.952Z,6.39
2023-04-05T06:16:59.873Z,6.39
2023-04-05T06:17:59.904Z,6.45
2023-04-05T06:18:59.853Z,6.38
2023-04-05T06:19:59.827Z,6.42
2023-04-05T06:20:59.812Z,6.45
2023-04-05T06:21:59.825Z,6.46
2023-04-05T06:22:59.792Z,6.45
2023-04-05T06:23:59.801Z,6.48
2023-04-05T06:24:59.804Z,6.57
2023-04-05T06:25:59.763Z,6.67
2023-04-05T06:26:59.758Z,6.63
2023-04-05T06:28:00.155Z,6.69
2023-04-05T06:28:59.742Z,6.57
2023-04-05T06:29:59.717Z,6.63
2023-04-05T06:30:59.704Z,6.74
2023-04-05T06:31:59.784Z,6.67
2023-04-05T06:32:59.721Z,6.52
2023-04-05T06:33:59.706Z,6.62
2023-04-05T06:34:59.656Z,6.67
2023-04-05T06:35:59.663Z,6.78
2023-04-05T06:36:59.640Z,6.82
2023-04-05T06:37:59.652Z,6.82
2023-04-05T06:38:59.717Z,6.87
2023-04-05T06:39:59.604Z,6.99
2023-04-05T06:40:59.589Z,7.11
2023-04-05T06:41:59.575Z,7.14
2023-04-05T06:42:59.568Z,7.13
2023-04-05T06:43:59.590Z,7.24
2023-04-05T06:44:59.612Z,7.25
2023-04-05T06:45:59.555Z,7.32
2023-04-05T06:46:59.578Z,7.36
2023-04-05T06:47:59.544Z,7.40
2023-04-05T06:49:00.622Z,7.42
2023-04-05T06:49:59.651Z,7.57
2023-04-05T06:50:59.489Z,7.70
2023-04-05T06:51:59.496Z,7.69
2023-04-05T06:52:59.455Z,7.58
2023-04-05T06:53:59.445Z,7.67
2023-04-05T06:54:59.454Z,7.85
2023-04-05T06:55:59.420Z,7.93
2023-04-05T06:57:01.646Z,8.12
2023-04-05T06:57:59.723Z,8.26
2023-04-05T06:58:59.521Z,8.26
2023-04-05T06:59:59.399Z,8.24
2023-04-05T07:00:59.370Z,8.28
2023-04-05T07:01:59.358Z,8.20
2023-04-05T07:02:59.379Z,8.28
2023-04-05T07:03:59.364Z,8.27
2023-04-05T07:04:59.328Z,8.30
2023-04-05T07:06:00.078Z,8.33
2023-04-05T07:06:59.300Z,8.36
2023-04-05T07:07:59.287Z,8.37
2023-04-05T07:08:59.286Z,8.41
2023-04-05T07:09:59.270Z,8.58
2023-04-05T07:10:59.398Z,8.69
2023-04-05T07:11:59.243Z,8.79
2023-04-05T07:12:59.235Z,8.91
2023-04-05T07:13:59.232Z,8.91
2023-04-05T07:14:59.279Z,9.02
2023-04-05T07:15:59.345Z,9.02
2023-04-05T07:16:59.196Z,9.02
2023-04-05T07:17:59.215Z,9.10
2023-04-05T07:18:59.172Z,9.23
2023-04-05T07:19:59.162Z,9.28
2023-04-05T07:20:59.171Z,9.26
2023-04-05T07:21:59.163Z,9.36
2023-04-05T07:22:59.129Z,9.48
2023-04-05T07:23:59.169Z,9.56
2023-04-05T07:24:59.400Z,9.62
2023-04-05T07:25:59.112Z,9.87
2023-04-05T07:26:59.080Z,10.01
2023-04-05T07:27:59.071Z,10.30
2023-04-05T07:28:59.074Z,10.72
2023-04-05T07:29:59.055Z,10.96
2023-04-05T07:30:59.051Z,11.29
2023-04-05T07:31:59.076Z,11.66
2023-04-05T07:32:59.058Z,11.60
2023-04-05T07:33:59.025Z,11.50
2023-04-05T07:34:59.007Z,11.75
2023-04-05T07:35:59.057Z,12.67
2023-04-05T07:36:58.969Z,13.52
2023-04-05T07:37:59.005Z,14.45
2023-04-05T07:38:59.016Z,15.43
2023-04-05T07:39:58.938Z,15.57
2023-04-05T07:40:59.056Z,15.35
2023-04-05T07:41:58.926Z,14.96
2023-04-05T07:42:58.917Z,14.60
2023-04-05T07:43:59.498Z,14.63
2023-04-05T07:44:58.897Z,14.81
2023-04-05T07:45:58.903Z,14.66
2023-04-05T07:46:58.923Z,14.45
2023-04-05T07:47:58.889Z,14.26
2023-04-05T07:48:58.838Z,14.54
2023-04-05T07:49:58.846Z,14.32
2023-04-05T07:50:58.813Z,15.42
2023-04-05T07:51:58.813Z,15.15
2023-04-05T07:52:58.798Z,14.48
2023-04-05T07:53:59.726Z,15.37
2023-04-05T07:54:58.800Z,16.35
2023-04-05T07:55:58.954Z,17.01
2023-04-05T07:56:58.749Z,17.63
2023-04-05T07:57:58.765Z,18.47
2023-04-05T07:58:58.770Z,19.40
2023-04-05T07:59:58.737Z,19.54
2023-04-05T08:00:58.779Z,20.22
2023-04-05T08:02:02.076Z,19.18
2023-04-05T08:03:02.185Z,19.21
2023-04-05T08:03:58.893Z,19.33
2023-04-05T08:04:58.671Z,19.66
2023-04-05T08:05:58.664Z,20.80
2023-04-05T08:06:58.637Z,21.61
2023-04-05T08:07:58.814Z,22.13
2023-04-05T08:08:58.632Z,21.92
2023-04-05T08:09:58.638Z,22.23
2023-04-05T08:10:58.605Z,23.25
2023-04-05T08:11:58.576Z,24.02
2023-04-05T08:12:58.586Z,23.87
2023-04-05T08:13:58.557Z,22.47
2023-04-05T08:14:58.773Z,20.69
2023-04-05T08:15:58.557Z,19.86
2023-04-05T08:16:58.532Z,20.51
2023-04-05T08:17:58.574Z,21.80
2023-04-05T08:18:58.525Z,22.14
2023-04-05T08:19:58.518Z,20.66
2023-04-05T08:20:58.523Z,19.66
2023-04-05T08:21:58.479Z,19.55
2023-04-05T08:22:58.479Z,19.18
2023-04-05T08:23:58.471Z,19.12
2023-04-05T08:24:58.487Z,19.44
2023-04-05T08:25:58.469Z,20.41
2023-04-05T08:26:58.494Z,21.61
2023-04-05T08:27:58.409Z,21.99
2023-04-05T08:28:58.420Z,21.14
2023-04-05T08:29:58.384Z,20.25
2023-04-05T08:30:58.406Z,19.52
2023-04-05T08:31:58.402Z,20.21
2023-04-05T08:32:58.422Z,21.52
2023-04-05T08:33:58.369Z,22.53
2023-04-05T08:34:58.350Z,23.21
2023-04-05T08:35:58.348Z,22.57
2023-04-05T08:36:58.312Z,22.43
2023-04-05T08:37:58.301Z,23.18
2023-04-05T08:38:58.298Z,24.05
2023-04-05T08:39:58.289Z,24.54
2023-04-05T08:40:58.282Z,24.93
2023-04-05T08:41:58.281Z,25.60
2023-04-05T08:42:58.244Z,26.10
2023-04-05T08:43:58.258Z,26.68
2023-04-05T08:44:58.242Z,25.51
2023-04-05T08:45:58.234Z,25.25
2023-04-05T08:46:58.206Z,25.44
2023-04-05T08:47:58.208Z,26.34
2023-04-05T08:48:58.193Z,26.89
2023-04-05T08:49:58.188Z,24.50
2023-04-05T08:50:58.197Z,24.10
2023-04-05T08:51:58.350Z,24.84
2023-04-05T08:52:58.144Z,25.81
2023-04-05T08:53:58.128Z,26.48
2023-04-05T08:54:58.128Z,26.89
2023-04-05T08:55:58.143Z,27.67
2023-04-05T08:56:58.117Z,26.16
2023-04-05T08:57:58.104Z,26.29
2023-04-05T08:58:58.086Z,25.87
2023-04-05T08:59:58.076Z,26.07
2023-04-05T09:00:58.087Z,25.31
2023-04-05T09:01:58.716Z,25.43
2023-04-05T09:02:58.357Z,25.68
2023-04-05T09:03:58.017Z,26.29
2023-04-05T09:04:58.032Z,26.51
2023-04-05T09:05:58.059Z,26.80
2023-04-05T09:06:58.006Z,27.44
2023-04-05T09:07:58.282Z,27.80
2023-04-05T09:08:57.987Z,27.65
2023-04-05T09:09:57.954Z,27.44
2023-04-05T09:10:57.962Z,27.70
2023-04-05T09:11:57.942Z,25.63
2023-04-05T09:12:57.928Z,22.26
2023-04-05T09:13:58.008Z,20.55
2023-04-05T09:14:57.928Z,20.62
2023-04-05T09:15:57.885Z,21.67
2023-04-05T09:16:57.912Z,20.80
2023-04-05T09:17:58.003Z,20.58
2023-04-05T09:18:57.869Z,18.98
2023-04-05T09:19:58.549Z,19.33
2023-04-05T09:20:57.849Z,20.26
2023-04-05T09:21:57.874Z,21.75
2023-04-05T09:22:57.813Z,22.85
2023-04-05T09:23:57.822Z,23.09
2023-04-05T09:24:57.803Z,23.61
2023-04-05T09:25:57.782Z,23.99
2023-04-05T09:26:57.787Z,25.01
2023-04-05T09:27:57.766Z,26.02
2023-04-05T09:28:58.109Z,26.70
2023-04-05T09:29:57.760Z,26.89
2023-04-05T09:30:57.728Z,25.38
2023-04-05T09:31:57.802Z,24.54
2023-04-05T09:32:57.781Z,25.06
2023-04-05T09:33:57.772Z,25.85
2023-04-05T09:34:57.688Z,26.89
2023-04-05T09:35:57.711Z,28.08
2023-04-05T09:36:57.685Z,27.37
2023-04-05T09:37:57.670Z,24.54
2023-04-05T09:38:57.641Z,23.36
2023-04-05T09:39:57.630Z,23.17
2023-04-05T09:40:57.638Z,22.96
2023-04-05T09:41:57.608Z,23.88
2023-04-05T09:42:57.638Z,24.35
2023-04-05T09:43:57.703Z,24.84
2023-04-05T09:44:57.609Z,25.55
2023-04-05T09:45:57.632Z,26.13
2023-04-05T09:46:57.611Z,24.98
2023-04-05T09:47:57.807Z,23.73
2023-04-05T09:48:57.586Z,22.73
2023-04-05T09:49:57.585Z,21.03
2023-04-05T09:51:03.720Z,20.87
2023-04-05T09:51:58.505Z,21.48
2023-04-05T09:52:57.487Z,22.38
2023-04-05T09:53:57.476Z,22.87
2023-04-05T09:54:57.481Z,23.02
2023-04-05T09:55:57.517Z,24.08
2023-04-05T09:56:57.674Z,25.28
2023-04-05T09:57:57.442Z,26.70
2023-04-05T09:58:57.467Z,27.80
2023-04-05T09:59:57.415Z,27.40
2023-04-05T10:01:06.655Z,26.29
2023-04-05T10:01:58.470Z,23.80
2023-04-05T10:02:57.748Z,22.45
2023-04-05T10:03:57.430Z,21.64
2023-04-05T10:04:57.363Z,22.55
2023-04-05T10:05:57.346Z,22.08
2023-04-05T10:06:57.467Z,23.27
2023-04-05T10:07:57.331Z,24.08
2023-04-05T10:08:57.315Z,24.33
2023-04-05T10:09:57.296Z,23.32
2023-04-05T10:10:58.069Z,23.44
2023-04-05T10:11:57.362Z,24.30
2023-04-05T10:12:57.273Z,25.73
2023-04-05T10:13:57.260Z,27.27
2023-04-05T10:14:57.267Z,28.17
2023-04-05T10:15:57.301Z,28.91
2023-04-05T10:16:57.536Z,28.76
2023-04-05T10:17:57.283Z,28.45
2023-04-05T10:18:57.226Z,28.23
2023-04-05T10:19:57.212Z,27.45
2023-04-05T10:20:57.189Z,26.52
2023-04-05T10:21:57.347Z,26.40
2023-04-05T10:22:57.174Z,25.91
2023-04-05T10:23:57.168Z,23.65
2023-04-05T10:24:57.143Z,20.60
2023-04-05T10:25:57.148Z,19.21
2023-04-05T10:26:57.173Z,18.41
2023-04-05T10:27:57.125Z,17.85
2023-04-05T10:28:57.116Z,16.93
2023-04-05T10:29:57.092Z,16.28
2023-04-05T10:30:57.123Z,16.00
2023-04-05T10:31:57.160Z,15.76
2023-04-05T10:32:57.301Z,15.47
2023-04-05T10:33:57.082Z,15.43
2023-04-05T10:34:57.098Z,15.77
2023-04-05T10:35:57.046Z,16.72
2023-04-05T10:36:57.106Z,17.29
2023-04-05T10:37:57.035Z,17.51
2023-04-05T10:39:00.042Z,17.79
2023-04-05T10:39:56.995Z,17.92
2023-04-05T10:40:57.022Z,17.68
2023-04-05T10:41:57.010Z,17.72
2023-04-05T10:42:57.000Z,17.39
2023-04-05T10:43:56.936Z,16.90
2023-04-05T10:44:57.001Z,16.15
2023-04-05T10:45:56.970Z,15.76
2023-04-05T10:46:56.965Z,15.52
2023-04-05T10:47:56.936Z,15.27
2023-04-05T10:48:56.878Z,14.77
2023-04-05T10:49:56.901Z,13.92
2023-04-05T10:50:56.940Z,13.52
2023-04-05T10:51:56.864Z,13.50
2023-04-05T10:52:56.838Z,13.71
2023-04-05T10:53:56.879Z,13.77
2023-04-05T10:54:56.858Z,13.95
2023-04-05T10:55:56.832Z,13.93
2023-04-05T10:56:56.799Z,13.59
2023-04-05T10:57:56.776Z,13.49
2023-04-05T10:58:57.580Z,13.52
2023-04-05T10:59:56.805Z,13.59
2023-04-05T11:00:56.855Z,13.33
2023-04-05T11:01:56.846Z,12.79
2023-04-05T11:02:56.858Z,12.68
2023-04-05T11:03:56.723Z,12.67
2023-04-05T11:04:56.811Z,12.80
2023-04-05T11:05:56.723Z,13.15
2023-04-05T11:06:56.684Z,13.42
2023-04-05T11:07:56.670Z,13.42
2023-04-05T11:08:56.677Z,13.22
2023-04-05T11:09:56.692Z,13.15
2023-04-05T11:10:56.636Z,13.15
2023-04-05T11:11:56.636Z,13.33
2023-04-05T11:12:56.652Z,13.53
2023-04-05T11:13:56.663Z,13.13
2023-04-05T11:14:56.627Z,12.94
2023-04-05T11:15:56.583Z,12.57
2023-04-05T11:16:57.009Z,12.79
2023-04-05T11:17:56.631Z,12.83
2023-04-05T11:18:56.554Z,13.08
2023-04-05T11:19:56.537Z,13.31
2023-04-05T11:20:56.523Z,13.35
2023-04-05T11:21:56.550Z,13.22
2023-04-05T11:22:56.498Z,12.94
2023-04-05T11:23:56.534Z,12.94
2023-04-05T11:24:56.490Z,13.04
2023-04-05T11:25:56.472Z,12.78
2023-04-05T11:26:56.456Z,12.36
2023-04-05T11:27:56.449Z,11.80
2023-04-05T11:28:56.635Z,11.84
2023-04-05T11:29:56.424Z,12.39
2023-04-05T11:30:56.454Z,12.58
2023-04-05T11:31:56.400Z,13.00
2023-04-05T11:32:56.503Z,13.63
2023-04-05T11:33:57.678Z,13.99
2023-04-05T11:34:56.388Z,14.28
2023-04-05T11:35:56.396Z,14.60
2023-04-05T11:36:56.351Z,15.21
2023-04-05T11:37:56.366Z,15.54
2023-04-05T11:38:56.346Z,15.70
2023-04-05T11:39:56.315Z,15.29
2023-04-05T11:40:56.305Z,14.91
2023-04-05T11:41:56.293Z,14.82
2023-04-05T11:42:59.113Z,14.35
2023-04-05T11:43:56.271Z,14.44
2023-04-05T11:44:56.280Z,14.60
2023-04-05T11:45:56.291Z,14.82
2023-04-05T11:46:56.238Z,15.07
2023-04-05T11:47:56.490Z,15.29
2023-04-05T11:48:56.217Z,15.43
2023-04-05T11:49:56.203Z,15.59
2023-04-05T11:50:56.212Z,15.06
2023-04-05T11:51:56.183Z,14.60
2023-04-05T11:52:56.183Z,14.53
2023-04-05T11:53:56.186Z,14.51
2023-04-05T11:54:56.147Z,14.36
2023-04-05T11:55:56.136Z,14.04
2023-04-05T11:56:56.179Z,13.74
2023-04-05T11:57:56.112Z,13.54
2023-04-05T11:58:56.128Z,13.39
2023-04-05T11:59:56.091Z,12.75
2023-04-05T12:00:56.082Z,11.88
2023-04-05T12:01:56.084Z,11.52
2023-04-05T12:02:56.200Z,11.57
2023-04-05T12:03:56.210Z,11.60
2023-04-05T12:04:56.169Z,11.78
2023-04-05T12:06:03.661Z,11.73
2023-04-05T12:06:56.009Z,11.59
2023-04-05T12:07:56.001Z,11.26
2023-04-05T12:08:56.029Z,11.33
2023-04-05T12:09:56.014Z,10.96
2023-04-05T12:10:55.984Z,11.00
2023-04-05T12:11:55.951Z,10.90
2023-04-05T12:12:55.949Z,11.04
2023-04-05T12:13:55.949Z,10.60
2023-04-05T12:14:55.941Z,10.64
2023-04-05T12:15:55.972Z,10.82
2023-04-05T12:16:55.909Z,11.02
2023-04-05T12:17:55.910Z,11.23
2023-04-05T12:18:55.878Z,11.37
2023-04-05T12:19:55.878Z,11.60
2023-04-05T12:20:56.162Z,11.59
2023-04-05T12:21:55.869Z,11.66
2023-04-05T12:22:55.841Z,11.66
2023-04-05T12:23:55.818Z,11.72
2023-04-05T12:24:55.833Z,11.77
2023-04-05T12:25:55.826Z,11.86
2023-04-05T12:26:58.574Z,11.73
2023-04-05T12:27:55.777Z,11.62
2023-04-05T12:28:55.787Z,11.68
2023-04-05T12:29:55.793Z,11.41
2023-04-05T12:30:55.760Z,11.25
2023-04-05T12:31:55.902Z,11.27
2023-04-05T12:32:55.766Z,11.41
2023-04-05T12:33:55.714Z,11.51
2023-04-05T12:34:55.705Z,11.66
2023-04-05T12:35:55.735Z,11.83
2023-04-05T12:36:55.684Z,12.06
2023-04-05T12:37:55.684Z,12.29
2023-04-05T12:38:55.665Z,12.37
2023-04-05T12:39:55.644Z,12.58
2023-04-05T12:40:55.651Z,12.76
2023-04-05T12:41:55.640Z,12.97
2023-04-05T12:42:55.614Z,12.91
2023-04-05T12:43:55.600Z,12.94
2023-04-05T12:44:55.617Z,13.04
2023-04-05T12:45:55.658Z,13.03
2023-04-05T12:46:55.646Z,12.64
2023-04-05T12:47:55.584Z,12.65
2023-04-05T12:48:55.562Z,12.86
2023-04-05T12:49:55.544Z,13.09
2023-04-05T12:50:55.535Z,13.12
2023-04-05T12:51:55.522Z,13.30
2023-04-05T12:52:55.533Z,13.47
2023-04-05T12:53:55.485Z,13.38
2023-04-05T12:54:55.498Z,13.01
2023-04-05T12:55:55.481Z,12.21
2023-04-05T12:56:55.660Z,12.00
2023-04-05T12:57:55.514Z,12.15
2023-04-05T12:58:55.467Z,12.39
2023-04-05T12:59:55.487Z,12.65
2023-04-05T13:00:55.492Z,12.75
2023-04-05T13:01:55.396Z,12.78
2023-04-05T13:02:55.537Z,12.82
2023-04-05T13:04:04.905Z,12.98
2023-04-05T13:04:56.367Z,12.98
2023-04-05T13:05:55.350Z,12.87
2023-04-05T13:06:55.355Z,12.86